createdAt,value
2018-05-08T00:01:52.496Z,15.33
2018-05-08T00:04:19.904Z,15.31
2018-05-08T00:06:47.791Z,15.28
2018-05-08T00:09:15.204Z,15.27
2018-05-08T00:11:42.640Z,15.26
2018-05-08T00:14:10.047Z,15.23
2018-05-08T00:16:37.532Z,15.22
2018-05-08T00:19:04.968Z,15.21
2018-05-08T00:21:32.383Z,15.21
2018-05-08T00:23:59.809Z,15.17
2018-05-08T00:26:27.212Z,15.15
2018-05-08T00:28:54.631Z,15.11
2018-05-08T00:31:22.044Z,15.09
2018-05-08T00:33:49.467Z,15.09
2018-05-08T00:36:16.883Z,15.09
2018-05-08T00:38:44.288Z,15.09
2018-05-08T00:41:11.700Z,15.04
2018-05-08T00:43:39.103Z,15.04
2018-05-08T00:46:06.521Z,15.03
2018-05-08T00:48:34.073Z,15.01
2018-05-08T00:51:01.475Z,14.96
2018-05-08T00:53:28.876Z,14.88
2018-05-08T00:55:56.306Z,14.82
2018-05-08T00:58:23.983Z,14.74
2018-05-08T01:00:51.378Z,14.71
2018-05-08T01:03:18.794Z,14.66
2018-05-08T01:05:46.208Z,14.62
2018-05-08T01:08:13.599Z,14.58
2018-05-08T01:10:41.015Z,14.58
2018-05-08T01:13:08.439Z,14.61
2018-05-08T01:15:35.835Z,14.65
2018-05-08T01:18:03.230Z,14.65
2018-05-08T01:20:30.645Z,14.62
2018-05-08T01:22:58.036Z,14.57
2018-05-08T01:25:25.743Z,14.51
2018-05-08T01:27:53.148Z,14.46
2018-05-08T01:30:20.553Z,14.35
2018-05-08T01:32:47.973Z,14.22
2018-05-08T01:35:15.383Z,14.14
2018-05-08T01:37:42.805Z,14.07
2018-05-08T01:40:10.212Z,14.02
2018-05-08T01:42:37.621Z,13.96
2018-05-08T01:45:05.037Z,13.91
2018-05-08T01:47:32.444Z,13.85
2018-05-08T01:49:59.857Z,13.81
2018-05-08T01:52:27.297Z,13.80
2018-05-08T01:54:54.695Z,13.78
2018-05-08T01:57:22.116Z,13.75
2018-05-08T01:59:49.529Z,13.69
2018-05-08T02:02:16.984Z,13.64
2018-05-08T02:04:44.397Z,13.58
2018-05-08T02:07:11.792Z,13.49
2018-05-08T02:09:39.211Z,13.45
2018-05-08T02:12:06.616Z,13.43
2018-05-08T02:14:34.038Z,13.35
2018-05-08T02:17:01.451Z,13.30
2018-05-08T02:19:28.864Z,13.27
2018-05-08T02:21:56.268Z,13.23
2018-05-08T02:24:23.688Z,13.23
2018-05-08T02:26:51.093Z,13.22
2018-05-08T02:29:18.504Z,13.21
2018-05-08T02:31:45.919Z,13.20
2018-05-08T02:34:13.319Z,13.20
2018-05-08T02:36:40.741Z,13.18
2018-05-08T02:39:08.149Z,13.12
2018-05-08T02:41:35.553Z,13.08
2018-05-08T02:44:03.354Z,13.05
2018-05-08T02:46:31.242Z,13.04
2018-05-08T02:48:58.653Z,13.01
2018-05-08T02:51:26.069Z,12.97
2018-05-08T02:53:53.483Z,12.93
2018-05-08T02:56:20.905Z,12.88
2018-05-08T02:58:48.310Z,12.85
2018-05-08T03:01:16.048Z,12.83
2018-05-08T03:03:43.452Z,12.72
2018-05-08T03:06:10.860Z,12.71
2018-05-08T03:08:38.990Z,12.67
2018-05-08T03:11:06.645Z,12.60
2018-05-08T03:13:34.073Z,12.57
2018-05-08T03:16:01.476Z,12.56
2018-05-08T03:18:28.895Z,12.55
2018-05-08T03:20:56.303Z,12.52
2018-05-08T03:23:23.733Z,12.48
2018-05-08T03:25:51.140Z,12.46
2018-05-08T03:28:18.540Z,12.46
2018-05-08T03:30:45.964Z,12.48
2018-05-08T03:33:13.364Z,12.49
2018-05-08T03:35:40.780Z,12.48
2018-05-08T03:38:08.203Z,12.44
2018-05-08T03:40:35.604Z,12.42
2018-05-08T03:43:03.025Z,12.40
2018-05-08T03:45:30.448Z,12.39
2018-05-08T03:47:57.868Z,12.38
2018-05-08T03:50:25.280Z,12.38
2018-05-08T03:52:52.696Z,12.38
2018-05-08T03:55:20.100Z,12.39
2018-05-08T03:57:47.517Z,12.41
2018-05-08T04:00:26.720Z,12.44
2018-05-08T04:03:05.697Z,12.45
2018-05-08T04:05:44.782Z,12.44
2018-05-08T04:08:35.795Z,12.43
2018-05-08T04:11:03.217Z,12.40
2018-05-08T04:13:30.615Z,12.38
2018-05-08T04:15:58.024Z,12.39
2018-05-08T04:18:25.443Z,12.45
2018-05-08T04:20:52.854Z,12.46
2018-05-08T04:23:20.254Z,12.47
2018-05-08T04:25:47.680Z,12.49
2018-05-08T04:28:15.085Z,12.48
2018-05-08T04:30:42.505Z,12.48
2018-05-08T04:33:09.916Z,12.56
2018-05-08T04:35:37.335Z,12.80
2018-05-08T04:38:04.739Z,13.46
2018-05-08T04:40:32.140Z,14.23
2018-05-08T04:42:59.558Z,15.06
2018-05-08T04:45:26.952Z,15.95
2018-05-08T04:47:54.367Z,16.83
2018-05-08T04:50:21.775Z,17.55
2018-05-08T04:52:49.194Z,18.20
2018-05-08T04:55:16.601Z,18.80
2018-05-08T04:57:44.008Z,19.35
2018-05-08T05:00:11.428Z,19.85
2018-05-08T05:02:38.881Z,20.50
2018-05-08T05:05:06.259Z,21.12
2018-05-08T05:07:33.687Z,21.77
2018-05-08T05:10:01.104Z,22.19
2018-05-08T05:12:28.506Z,22.72
2018-05-08T05:14:55.914Z,23.10
2018-05-08T05:17:23.331Z,23.60
2018-05-08T05:19:50.733Z,24.13
2018-05-08T05:22:18.744Z,24.55
2018-05-08T05:24:46.142Z,24.94
2018-05-08T05:27:13.548Z,25.57
2018-05-08T05:29:40.968Z,26.25
2018-05-08T05:32:08.368Z,26.81
2018-05-08T05:34:35.802Z,27.36
2018-05-08T05:37:03.238Z,27.81
2018-05-08T05:39:30.635Z,28.27
2018-05-08T05:41:58.040Z,28.58
2018-05-08T05:44:25.457Z,28.77
2018-05-08T05:46:53.132Z,28.76
2018-05-08T05:49:20.536Z,28.67
2018-05-08T05:51:47.935Z,28.63
2018-05-08T05:54:15.358Z,28.52
2018-05-08T05:56:42.785Z,28.34
2018-05-08T05:59:10.192Z,28.22
2018-05-08T06:01:37.596Z,28.32
2018-05-08T06:04:05.020Z,28.39
2018-05-08T06:06:32.429Z,28.10
2018-05-08T06:08:59.844Z,27.83
2018-05-08T06:11:27.248Z,27.98
2018-05-08T06:13:54.692Z,27.94
2018-05-08T06:16:22.104Z,27.81
2018-05-08T06:18:49.504Z,27.93
2018-05-08T06:21:16.931Z,28.19
2018-05-08T06:23:44.330Z,28.28
2018-05-08T06:26:11.755Z,28.19
2018-05-08T06:28:39.160Z,28.07
2018-05-08T06:31:06.577Z,28.07
2018-05-08T06:33:34.052Z,27.89
2018-05-08T06:36:01.465Z,27.69
2018-05-08T06:38:28.872Z,27.94
2018-05-08T06:40:56.280Z,27.57
2018-05-08T06:43:23.701Z,27.78
2018-05-08T06:45:51.107Z,27.78
2018-05-08T06:48:18.538Z,27.77
2018-05-08T06:50:45.937Z,27.54
2018-05-08T06:53:13.346Z,27.27
2018-05-08T06:55:40.796Z,26.90
2018-05-08T06:58:08.194Z,26.82
2018-05-08T07:00:35.608Z,26.99
2018-05-08T07:03:03.114Z,26.82
2018-05-08T07:05:30.514Z,26.79
2018-05-08T07:07:57.914Z,27.04
2018-05-08T07:10:25.312Z,27.38
2018-05-08T07:12:52.982Z,27.29
2018-05-08T07:15:20.386Z,26.87
2018-05-08T07:17:47.787Z,26.81
2018-05-08T07:20:15.213Z,26.87
2018-05-08T07:22:42.636Z,27.15
2018-05-08T07:25:10.057Z,27.39
2018-05-08T07:27:37.460Z,27.52
2018-05-08T07:30:04.926Z,27.87
2018-05-08T07:32:32.306Z,28.06
2018-05-08T07:34:59.716Z,28.14
2018-05-08T07:37:27.124Z,28.65
2018-05-08T07:39:54.529Z,28.62
2018-05-08T07:42:22.010Z,28.50
2018-05-08T07:44:49.408Z,28.54
2018-05-08T07:47:16.827Z,28.36
2018-05-08T07:49:44.233Z,28.36
2018-05-08T07:52:11.980Z,28.10
2018-05-08T07:54:39.390Z,28.28
2018-05-08T07:57:07.209Z,28.37
2018-05-08T07:59:34.619Z,28.55
2018-05-08T08:02:02.049Z,28.99
2018-05-08T08:04:29.481Z,29.10
2018-05-08T08:06:56.885Z,29.44
2018-05-08T08:09:24.288Z,29.36
2018-05-08T08:11:51.713Z,29.38
2018-05-08T08:14:19.123Z,29.25
2018-05-08T08:16:46.544Z,29.51
2018-05-08T08:19:13.961Z,29.56
2018-05-08T08:21:41.368Z,29.43
2018-05-08T08:24:08.772Z,29.35
2018-05-08T08:26:36.209Z,29.14
2018-05-08T08:29:03.637Z,29.08
2018-05-08T08:31:31.039Z,28.82
2018-05-08T08:33:58.471Z,28.61
2018-05-08T08:36:25.871Z,28.56
2018-05-08T08:38:53.288Z,28.52
2018-05-08T08:41:20.712Z,28.59
2018-05-08T08:43:48.297Z,28.35
2018-05-08T08:46:15.695Z,27.95
2018-05-08T08:48:43.108Z,27.90
2018-05-08T08:51:10.540Z,27.91
2018-05-08T08:53:37.951Z,27.85
2018-05-08T08:56:05.408Z,27.75
2018-05-08T08:58:32.773Z,27.58
2018-05-08T09:01:00.198Z,27.47
2018-05-08T09:03:27.900Z,27.37
2018-05-08T09:05:55.305Z,27.43
2018-05-08T09:08:22.705Z,27.48
2018-05-08T09:10:50.125Z,27.66
2018-05-08T09:13:17.551Z,27.95
2018-05-08T09:15:44.964Z,28.26
2018-05-08T09:18:12.404Z,28.21
2018-05-08T09:20:39.871Z,28.30
2018-05-08T09:23:07.269Z,28.40
2018-05-08T09:25:34.672Z,28.47
2018-05-08T09:28:02.096Z,28.35
2018-05-08T09:30:29.528Z,28.52
2018-05-08T09:32:57.009Z,28.91
2018-05-08T09:35:24.337Z,29.13
2018-05-08T09:37:51.757Z,29.33
2018-05-08T09:40:19.159Z,29.36
2018-05-08T09:42:46.580Z,29.49
2018-05-08T09:45:13.988Z,29.59
2018-05-08T09:47:41.408Z,29.62
2018-05-08T09:50:08.815Z,29.55
2018-05-08T09:52:36.236Z,28.95
2018-05-08T09:55:03.637Z,28.35
2018-05-08T09:57:31.039Z,28.08
2018-05-08T09:59:58.597Z,27.73
2018-05-08T10:02:26.006Z,27.55
2018-05-08T10:04:53.401Z,27.22
2018-05-08T10:07:20.824Z,27.08
2018-05-08T10:09:48.233Z,27.00
2018-05-08T10:12:15.684Z,26.87
2018-05-08T10:14:43.087Z,26.65
2018-05-08T10:17:10.649Z,26.43
2018-05-08T10:19:38.135Z,26.17
2018-05-08T10:22:05.602Z,26.12
2018-05-08T10:24:33.065Z,26.12
2018-05-08T10:27:00.427Z,26.10
2018-05-08T10:29:27.846Z,26.08
2018-05-08T10:31:55.252Z,26.15
2018-05-08T10:34:22.663Z,26.06
2018-05-08T10:36:50.096Z,26.03
2018-05-08T10:39:17.503Z,26.12
2018-05-08T10:41:44.948Z,25.94
2018-05-08T10:44:12.420Z,25.95
2018-05-08T10:46:40.095Z,25.74
2018-05-08T10:49:07.636Z,25.61
2018-05-08T10:51:35.037Z,25.51
2018-05-08T10:54:02.459Z,25.73
2018-05-08T10:56:30.428Z,25.83
2018-05-08T10:58:57.853Z,25.84
2018-05-08T11:01:25.268Z,25.81
2018-05-08T11:03:52.679Z,25.78
2018-05-08T11:06:20.080Z,25.71
2018-05-08T11:08:47.506Z,25.59
2018-05-08T11:11:14.911Z,25.62
2018-05-08T11:13:42.320Z,25.74
2018-05-08T11:16:09.731Z,25.89
2018-05-08T11:18:37.173Z,25.88
2018-05-08T11:21:04.579Z,25.73
2018-05-08T11:23:31.984Z,25.70
2018-05-08T11:25:59.408Z,25.58
2018-05-08T11:28:35.326Z,25.65
2018-05-08T11:31:02.912Z,25.72
2018-05-08T11:33:30.319Z,25.69
2018-05-08T11:35:57.752Z,25.67
2018-05-08T11:38:25.175Z,25.79
2018-05-08T11:40:52.578Z,25.72
2018-05-08T11:43:20.010Z,25.83
2018-05-08T11:45:47.412Z,25.95
2018-05-08T11:48:14.842Z,25.90
2018-05-08T11:50:42.310Z,25.86
2018-05-08T11:53:09.729Z,25.98
2018-05-08T11:55:37.156Z,25.96
2018-05-08T11:58:04.559Z,25.95
2018-05-08T12:00:31.980Z,25.97
2018-05-08T12:02:59.392Z,25.87
2018-05-08T12:05:26.917Z,26.01
2018-05-08T12:07:54.325Z,26.09
2018-05-08T12:10:21.723Z,25.96
2018-05-08T12:12:49.148Z,26.06
2018-05-08T12:15:16.546Z,26.10
2018-05-08T12:17:43.959Z,26.23
2018-05-08T12:20:11.369Z,26.40
2018-05-08T12:22:38.764Z,26.43
2018-05-08T12:25:06.196Z,26.41
2018-05-08T12:27:33.610Z,26.27
2018-05-08T12:30:01.008Z,26.31
2018-05-08T12:32:28.438Z,26.28
2018-05-08T12:34:55.851Z,26.38
2018-05-08T12:37:23.272Z,26.41
2018-05-08T12:39:50.671Z,26.44
2018-05-08T12:42:18.079Z,26.42
2018-05-08T12:44:45.493Z,26.42
2018-05-08T12:47:12.944Z,26.47
2018-05-08T12:49:40.393Z,26.48
2018-05-08T12:52:07.783Z,26.59
2018-05-08T12:54:35.205Z,26.57
2018-05-08T12:57:02.595Z,26.53
2018-05-08T12:59:30.056Z,26.52
2018-05-08T13:01:57.490Z,26.65
2018-05-08T13:04:24.909Z,26.57
2018-05-08T13:06:52.341Z,26.70
2018-05-08T13:09:19.740Z,26.78
2018-05-08T13:11:47.141Z,26.63
2018-05-08T13:14:14.553Z,26.57
2018-05-08T13:16:41.970Z,26.59
2018-05-08T13:19:09.372Z,26.54
2018-05-08T13:21:36.769Z,26.60
2018-05-08T13:24:04.176Z,26.44
2018-05-08T13:26:31.579Z,26.42
2018-05-08T13:28:59.015Z,26.53
2018-05-08T13:31:26.417Z,26.57
2018-05-08T13:33:53.988Z,26.67
2018-05-08T13:36:21.396Z,26.64
2018-05-08T13:38:48.793Z,26.62
2018-05-08T13:41:17.314Z,26.63
2018-05-08T13:43:44.715Z,26.60
2018-05-08T13:46:12.220Z,26.57
2018-05-08T13:48:39.651Z,26.54
2018-05-08T13:51:07.060Z,26.57
2018-05-08T13:53:34.474Z,26.54
2018-05-08T13:56:01.865Z,26.62
2018-05-08T13:58:29.272Z,26.77
2018-05-08T14:00:57.015Z,26.78
2018-05-08T14:03:24.364Z,26.78
2018-05-08T14:05:51.767Z,26.77
2018-05-08T14:08:19.237Z,26.85
2018-05-08T14:10:46.641Z,26.83
2018-05-08T14:13:14.053Z,26.93
2018-05-08T14:15:41.464Z,26.86
2018-05-08T14:18:08.868Z,26.67
2018-05-08T14:20:36.280Z,26.72
2018-05-08T14:23:03.686Z,26.81
2018-05-08T14:28:00.128Z,26.84
2018-05-08T14:30:27.518Z,26.68
2018-05-08T14:32:54.932Z,26.74
2018-05-08T14:35:22.344Z,26.81
2018-05-08T14:37:49.758Z,26.90
2018-05-08T14:40:17.170Z,26.92
2018-05-08T14:42:44.572Z,26.92
2018-05-08T14:45:11.993Z,27.02
2018-05-08T14:47:39.401Z,26.98
2018-05-08T14:50:06.792Z,27.04
2018-05-08T14:52:34.228Z,26.99
2018-05-08T14:55:01.636Z,26.93
2018-05-08T14:57:29.045Z,26.89
2018-05-08T14:59:56.468Z,26.83
2018-05-08T15:02:23.880Z,26.90
2018-05-08T15:04:51.286Z,27.00
2018-05-08T15:07:18.696Z,27.03
2018-05-08T15:09:46.112Z,27.00
2018-05-08T15:12:13.511Z,27.03
2018-05-08T15:14:40.921Z,26.89
2018-05-08T15:17:08.412Z,26.90
2018-05-08T15:19:35.809Z,26.84
2018-05-08T15:22:03.226Z,26.89
2018-05-08T15:24:30.637Z,26.92
2018-05-08T15:26:58.043Z,26.89
2018-05-08T15:29:25.432Z,26.93
2018-05-08T15:31:52.849Z,26.98
2018-05-08T15:34:20.249Z,26.99
2018-05-08T15:36:47.649Z,26.93
2018-05-08T15:39:15.076Z,27.04
2018-05-08T15:41:42.481Z,26.94
2018-05-08T15:44:09.891Z,26.99
2018-05-08T15:46:37.296Z,26.95
2018-05-08T15:49:04.736Z,26.82
2018-05-08T15:51:32.136Z,26.77
2018-05-08T15:53:59.556Z,26.78
2018-05-08T15:56:26.960Z,26.77
2018-05-08T15:58:54.392Z,26.83
2018-05-08T16:01:21.804Z,26.77
2018-05-08T16:03:49.212Z,26.76
2018-05-08T16:06:16.627Z,26.83
2018-05-08T16:08:44.117Z,26.76
2018-05-08T16:11:11.423Z,26.68
2018-05-08T16:13:38.834Z,26.62
2018-05-08T16:16:06.281Z,26.68
2018-05-08T16:18:33.832Z,26.62
2018-05-08T16:21:01.277Z,26.54
2018-05-08T16:23:28.628Z,26.48
2018-05-08T16:25:56.049Z,26.57
2018-05-08T16:28:23.458Z,26.50
2018-05-08T16:30:50.883Z,26.57
2018-05-08T16:33:18.280Z,26.65
2018-05-08T16:35:45.690Z,26.64
2018-05-08T16:38:13.100Z,26.49
2018-05-08T16:40:40.509Z,26.49
2018-05-08T16:43:07.917Z,26.57
2018-05-08T16:45:35.328Z,26.53
2018-05-08T16:48:02.756Z,26.42
2018-05-08T16:50:30.158Z,26.48
2018-05-08T16:52:57.568Z,26.48
2018-05-08T16:55:24.975Z,26.47
2018-05-08T16:57:52.397Z,26.47
2018-05-08T17:00:19.800Z,26.42
2018-05-08T17:02:47.208Z,26.38
2018-05-08T17:05:14.620Z,26.23
2018-05-08T17:07:42.032Z,26.20
2018-05-08T17:10:09.648Z,26.21
2018-05-08T17:12:37.064Z,26.26
2018-05-08T17:15:04.464Z,26.24
2018-05-08T17:17:32.148Z,26.25
2018-05-08T17:19:59.548Z,26.22
2018-05-08T17:22:26.949Z,26.21
2018-05-08T17:24:54.368Z,26.16
2018-05-08T17:27:21.785Z,26.10
2018-05-08T17:29:49.284Z,26.07
2018-05-08T17:32:16.748Z,26.04
2018-05-08T17:34:44.148Z,26.03
2018-05-08T17:37:11.569Z,26.03
2018-05-08T17:39:38.964Z,25.97
2018-05-08T17:42:06.389Z,25.94
2018-05-08T17:44:33.810Z,25.90
2018-05-08T17:47:01.228Z,25.79
2018-05-08T17:49:28.713Z,25.76
2018-05-08T17:51:56.124Z,25.74
2018-05-08T17:54:23.850Z,25.67
2018-05-08T17:56:51.241Z,25.57
2018-05-08T17:59:18.638Z,25.54
2018-05-08T18:01:46.052Z,25.52
2018-05-08T18:04:13.546Z,25.46
2018-05-08T18:06:40.865Z,25.39
2018-05-08T18:09:08.296Z,25.37
2018-05-08T18:11:35.731Z,25.30
2018-05-08T18:14:03.137Z,25.29
2018-05-08T18:16:30.536Z,25.22
2018-05-08T18:18:57.952Z,25.15
2018-05-08T18:21:25.357Z,25.07
2018-05-08T18:23:52.784Z,25.03
2018-05-08T18:26:20.196Z,24.91
2018-05-08T18:28:47.592Z,24.87
2018-05-08T18:31:15.072Z,24.79
2018-05-08T18:33:42.921Z,24.74
2018-05-08T18:36:10.467Z,24.67
2018-05-08T18:38:38.022Z,24.62
2018-05-08T18:41:05.429Z,24.55
2018-05-08T18:43:32.840Z,24.48
2018-05-08T18:46:00.525Z,24.40
2018-05-08T18:48:27.939Z,24.30
2018-05-08T18:50:55.465Z,24.26
2018-05-08T18:53:23.020Z,24.21
2018-05-08T18:55:50.457Z,24.11
2018-05-08T18:58:17.852Z,24.01
2018-05-08T19:00:50.977Z,23.93
2018-05-08T19:03:18.449Z,23.85
2018-05-08T19:05:45.878Z,23.77
2018-05-08T19:08:13.459Z,23.70
2018-05-08T19:10:40.950Z,23.63
2018-05-08T19:13:08.368Z,23.56
2018-05-08T19:15:41.381Z,23.48
2018-05-08T19:18:08.923Z,23.39
2018-05-08T19:20:36.325Z,23.35
2018-05-08T19:23:03.723Z,23.29
2018-05-08T19:25:31.169Z,23.22
2018-05-08T19:28:04.291Z,23.15
2018-05-08T19:30:31.701Z,23.05
2018-05-08T19:32:59.116Z,22.97
2018-05-08T19:35:32.114Z,22.85
2018-05-08T19:38:02.486Z,22.79
2018-05-08T19:40:29.917Z,22.70
2018-05-08T19:42:57.480Z,22.63
2018-05-08T19:45:25.188Z,22.55
2018-05-08T19:47:52.904Z,22.47
2018-05-08T19:50:20.313Z,22.39
2018-05-08T19:52:47.747Z,22.32
2018-05-08T19:55:15.159Z,22.26
2018-05-08T19:57:42.573Z,22.19
2018-05-08T20:00:10.034Z,22.10
2018-05-08T20:02:37.426Z,22.01
2018-05-08T20:05:04.848Z,21.93
2018-05-08T20:07:32.264Z,21.87
2018-05-08T20:09:59.676Z,21.82
2018-05-08T20:12:27.085Z,21.74
2018-05-08T20:14:54.509Z,21.69
2018-05-08T20:17:21.906Z,21.63
2018-05-08T20:19:49.307Z,21.57
2018-05-08T20:22:16.708Z,21.51
2018-05-08T20:24:44.512Z,21.45
2018-05-08T20:27:11.908Z,21.39
2018-05-08T20:29:39.310Z,21.35
2018-05-08T20:32:06.722Z,21.29
2018-05-08T20:34:34.121Z,21.16
2018-05-08T20:37:01.605Z,21.18
2018-05-08T20:39:29.114Z,21.11
2018-05-08T20:41:56.508Z,21.04
2018-05-08T20:44:23.964Z,20.99
2018-05-08T20:46:51.364Z,20.93
2018-05-08T20:49:18.759Z,20.88
2018-05-08T20:51:46.184Z,20.84
2018-05-08T20:54:13.595Z,20.77
2018-05-08T20:56:41.007Z,20.73
2018-05-08T20:59:08.425Z,20.67
2018-05-08T21:01:35.836Z,20.62
2018-05-08T21:04:03.252Z,20.57
2018-05-08T21:06:30.679Z,20.51
2018-05-08T21:08:58.072Z,20.44
2018-05-08T21:11:25.464Z,20.38
2018-05-08T21:13:53.294Z,20.33
2018-05-08T21:16:29.808Z,20.26
2018-05-08T21:18:57.600Z,20.19
2018-05-08T21:21:25.000Z,20.11
2018-05-08T21:23:52.441Z,20.06
2018-05-08T21:26:19.896Z,19.98
2018-05-08T21:28:53.017Z,19.92
2018-05-08T21:31:20.432Z,19.85
2018-05-08T21:33:47.836Z,19.80
2018-05-08T21:36:15.253Z,19.74
2018-05-08T21:38:42.658Z,19.70
2018-05-08T21:41:10.071Z,19.65
2018-05-08T21:43:37.525Z,19.61
2018-05-08T21:46:04.928Z,19.56
2018-05-08T21:48:32.386Z,19.50
2018-05-08T21:50:59.838Z,19.45
2018-05-08T21:53:27.336Z,19.42
2018-05-08T21:55:54.741Z,19.37
2018-05-08T21:58:22.163Z,19.34
2018-05-08T22:00:49.559Z,19.29
2018-05-08T22:03:16.960Z,19.25
2018-05-08T22:05:44.693Z,19.20
2018-05-08T22:08:12.084Z,19.15
2018-05-08T22:10:39.484Z,19.09
2018-05-08T22:13:06.921Z,19.05
2018-05-08T22:15:34.316Z,19.02
2018-05-08T22:18:01.709Z,18.99
2018-05-08T22:20:29.128Z,18.97
2018-05-08T22:22:56.538Z,18.94
2018-05-08T22:25:23.956Z,18.92
2018-05-08T22:27:51.383Z,18.88
2018-05-08T22:30:18.876Z,18.85
2018-05-08T22:32:46.273Z,18.80
2018-05-08T22:35:13.695Z,18.76
2018-05-08T22:37:41.124Z,18.72
2018-05-08T22:40:08.544Z,18.68
2018-05-08T22:42:36.386Z,18.64
2018-05-08T22:45:03.820Z,18.60
2018-05-08T22:47:31.216Z,18.57
2018-05-08T22:49:58.636Z,18.54
2018-05-08T22:52:26.040Z,18.52
2018-05-08T22:54:53.444Z,18.49
2018-05-08T22:57:20.854Z,18.45
2018-05-08T22:59:48.260Z,18.41
2018-05-08T23:02:15.668Z,18.38
2018-05-08T23:04:43.068Z,18.34
2018-05-08T23:07:10.476Z,18.29
2018-05-08T23:09:37.907Z,18.26
2018-05-08T23:12:05.296Z,18.18
2018-05-08T23:14:32.724Z,18.07
2018-05-08T23:17:00.128Z,17.96
2018-05-08T23:19:27.532Z,17.81
2018-05-08T23:21:54.987Z,17.70
2018-05-08T23:24:22.384Z,17.60
2018-05-08T23:26:49.813Z,17.51
2018-05-08T23:29:17.204Z,17.42
2018-05-08T23:31:44.622Z,17.34
2018-05-08T23:34:12.295Z,17.28
2018-05-08T23:36:39.697Z,17.22
2018-05-08T23:39:07.097Z,17.17
2018-05-08T23:41:34.531Z,17.13
2018-05-08T23:44:01.924Z,17.08
2018-05-08T23:46:29.389Z,17.07
2018-05-08T23:48:57.139Z,17.04
2018-05-08T23:51:24.536Z,17.00
2018-05-08T23:53:51.947Z,16.94
2018-05-08T23:56:19.411Z,16.84
2018-05-08T23:58:46.839Z,16.77
